Atlantida Azul — CSYG2 — position and weather

sailwx.info

Track history (hours):
 
Tides and Currents Weather Stations Pressure Air Temp Water Temp Dewpoint Dewpoint Depression Visibility Wind Speed Wind Dir Waves Ship Positions

Atlantida Azul

Last reported at 2014-Nov-21 18:10 UTC. Time now 2014-Nov-23 16:59 UTC.
Position N 37°56' W 008°51'.

Length 16 m.

Type: Pilot. MMSI: 263672880.

Date/timePositionNaut miles runAvg speedWind from/ knotsBaromVisibWave heightAir tempDewpointWater temp
2014-Nov-21 18:10N 37°56' W 008°51'0 0.6
2014-Nov-21 17:33N 37°56' W 008°51'0 0.4
2014-Nov-21 16:31N 37°56' W 008°51'0 0.0
2014-Nov-21 13:18N 37°56' W 008°51'0 0.0
2014-Nov-21 12:33N 37°56' W 008°51'0 0.0
2014-Nov-21 11:33N 37°56' W 008°51'0 0.0
2014-Nov-20 19:31N 37°56' W 008°51'0 0.0
2014-Nov-20 18:31N 37°56' W 008°51'0 0.0
2014-Nov-20 12:32N 37°56' W 008°51'0 0.0
2014-Nov-19 18:15N 37°56' W 008°51'0 0.0
2014-Nov-19 12:24N 37°56' W 008°51'0 0.0
2014-Nov-18 18:33N 37°56' W 008°51'0 0.0
2014-Nov-18 17:30N 37°56' W 008°51'0 0.0
2014-Nov-18 12:33N 37°56' W 008°51'  
2014-Nov-15 18:08N 37°56' W 008°51'2 3.0
2014-Nov-15 17:33N 37°55' W 008°53'2 2.0
2014-Nov-15 16:33N 37°57' W 008°53'0 0.0
2014-Nov-15 15:33N 37°57' W 008°53'0 0.3
2014-Nov-15 14:32N 37°57' W 008°53'1 0.7
2014-Nov-15 12:19N 37°56' W 008°51'0 0.0
2014-Nov-15 11:32N 37°56' W 008°51'1 0.1
2014-Nov-15 04:15N 37°56' W 008°51'1 0.8
2014-Nov-15 03:33N 37°56' W 008°51'0 0.0
2014-Nov-15 02:33N 37°56' W 008°51'0 0.1
2014-Nov-15 00:31N 37°56' W 008°51'0 0.0
2014-Nov-14 19:27N 37°56' W 008°51'2 1.8
2014-Nov-14 18:32N 37°57' W 008°53'1 0.4
2014-Nov-14 16:33N 37°56' W 008°52'1 1.1
2014-Nov-14 15:32N 37°57' W 008°53'0 0.1
2014-Nov-14 14:30N 37°57' W 008°53'2 0.7
2014-Nov-14 11:33N 37°56' W 008°51'0 0.0
2014-Nov-14 10:31N 37°56' W 008°51'1 1.1
2014-Nov-14 09:34N 37°57' W 008°52'1 0.2
2014-Nov-14 05:33N 37°56' W 008°52'1 1.2
2014-Nov-14 04:32N 37°57' W 008°53'2 0.2
2014-Nov-13 20:32N 37°56' W 008°51'2 1.8
2014-Nov-13 19:33N 37°57' W 008°53'3 3.4
2014-Nov-13 18:33N 37°54' W 008°50'2 0.9
2014-Nov-13 16:32N 37°56' W 008°51'1 1.1
2014-Nov-13 15:32N 37°57' W 008°52'0 0.5
2014-Nov-13 14:33N 37°56' W 008°53'2 1.6
2014-Nov-13 13:32N 37°56' W 008°51'1 0.6
2014-Nov-13 12:28N 37°56' W 008°51'0 0.0
2014-Nov-13 11:28N 37°56' W 008°51'0 0.0
2014-Nov-13 10:33N 37°56' W 008°51'0 0.0
2014-Nov-13 09:33N 37°56' W 008°51'0 0.0
2014-Nov-13 05:33N 37°56' W 008°51'0 0.3
2014-Nov-13 04:32N 37°56' W 008°51'1 0.2
2014-Nov-13 00:27N 37°56' W 008°52'1 0.6
2014-Nov-12 23:05N 37°57' W 008°52'1 0.9
2014-Nov-12 22:33N 37°56' W 008°52'1 0.3
2014-Nov-12 20:32N 37°56' W 008°51'0 0.2
2014-Nov-12 19:33N 37°56' W 008°51'0 0.5
2014-Nov-12 18:33N 37°56' W 008°51'1 1.3
2014-Nov-12 17:33N 37°57' W 008°52'2 1.5
2014-Nov-12 16:33N 37°55' W 008°52'2 1.6
2014-Nov-12 15:33N 37°57' W 008°53'1 1.1
2014-Nov-12 14:32N 37°57' W 008°52'1 0.1
2014-Nov-12 08:18N 37°56' W 008°51'1 2.0
2014-Nov-12 07:32N 37°55' W 008°52'1 0.5
2014-Nov-12 04:33N 37°56' W 008°51'0 0.0
2014-Nov-12 02:25N 37°56' W 008°51'0 0.0
2014-Nov-11 22:05N 37°56' W 008°51'0 0.5
2014-Nov-11 21:32N 37°56' W 008°51'2 1.1
2014-Nov-11 19:33N 37°54' W 008°51'  
Track history (hours):
 
Tides and Currents Weather Stations Pressure Air Temp Water Temp Dewpoint Dewpoint Depression Visibility Wind Speed Wind Dir Waves Ship Positions

Atlantida Azul

Last reported at 2014-Nov-21 18:10 UTC. Time now 2014-Nov-23 16:59 UTC.
Position N 37°56' W 008°51'.

Length 16 m.

Type: Pilot. MMSI: 263672880.

Date/timePositionNaut miles runAvg speedWind from/ knotsBaromVisibWave heightAir tempDewpointWater temp
2014-Nov-21 18:10N 37°56' W 008°51'0 0.6
2014-Nov-21 17:33N 37°56' W 008°51'0 0.4
2014-Nov-21 16:31N 37°56' W 008°51'0 0.0
2014-Nov-21 13:18N 37°56' W 008°51'0 0.0
2014-Nov-21 12:33N 37°56' W 008°51'0 0.0
2014-Nov-21 11:33N 37°56' W 008°51'0 0.0
2014-Nov-20 19:31N 37°56' W 008°51'0 0.0
2014-Nov-20 18:31N 37°56' W 008°51'0 0.0
2014-Nov-20 12:32N 37°56' W 008°51'0 0.0
2014-Nov-19 18:15N 37°56' W 008°51'0 0.0
2014-Nov-19 12:24N 37°56' W 008°51'0 0.0
2014-Nov-18 18:33N 37°56' W 008°51'0 0.0
2014-Nov-18 17:30N 37°56' W 008°51'0 0.0
2014-Nov-18 12:33N 37°56' W 008°51'  
2014-Nov-15 18:08N 37°56' W 008°51'2 3.0
2014-Nov-15 17:33N 37°55' W 008°53'2 2.0
2014-Nov-15 16:33N 37°57' W 008°53'0 0.0
2014-Nov-15 15:33N 37°57' W 008°53'0 0.3
2014-Nov-15 14:32N 37°57' W 008°53'1 0.7
2014-Nov-15 12:19N 37°56' W 008°51'0 0.0
2014-Nov-15 11:32N 37°56' W 008°51'1 0.1
2014-Nov-15 04:15N 37°56' W 008°51'1 0.8
2014-Nov-15 03:33N 37°56' W 008°51'0 0.0
2014-Nov-15 02:33N 37°56' W 008°51'0 0.1
2014-Nov-15 00:31N 37°56' W 008°51'0 0.0
2014-Nov-14 19:27N 37°56' W 008°51'2 1.8
2014-Nov-14 18:32N 37°57' W 008°53'1 0.4
2014-Nov-14 16:33N 37°56' W 008°52'1 1.1
2014-Nov-14 15:32N 37°57' W 008°53'0 0.1
2014-Nov-14 14:30N 37°57' W 008°53'2 0.7
2014-Nov-14 11:33N 37°56' W 008°51'0 0.0
2014-Nov-14 10:31N 37°56' W 008°51'1 1.1
2014-Nov-14 09:34N 37°57' W 008°52'1 0.2
2014-Nov-14 05:33N 37°56' W 008°52'1 1.2
2014-Nov-14 04:32N 37°57' W 008°53'2 0.2
2014-Nov-13 20:32N 37°56' W 008°51'2 1.8
2014-Nov-13 19:33N 37°57' W 008°53'3 3.4
2014-Nov-13 18:33N 37°54' W 008°50'2 0.9
2014-Nov-13 16:32N 37°56' W 008°51'1 1.1
2014-Nov-13 15:32N 37°57' W 008°52'0 0.5
2014-Nov-13 14:33N 37°56' W 008°53'2 1.6
2014-Nov-13 13:32N 37°56' W 008°51'1 0.6
2014-Nov-13 12:28N 37°56' W 008°51'0 0.0
2014-Nov-13 11:28N 37°56' W 008°51'0 0.0
2014-Nov-13 10:33N 37°56' W 008°51'0 0.0
2014-Nov-13 09:33N 37°56' W 008°51'0 0.0
2014-Nov-13 05:33N 37°56' W 008°51'0 0.3
2014-Nov-13 04:32N 37°56' W 008°51'1 0.2
2014-Nov-13 00:27N 37°56' W 008°52'1 0.6
2014-Nov-12 23:05N 37°57' W 008°52'1 0.9
2014-Nov-12 22:33N 37°56' W 008°52'1 0.3
2014-Nov-12 20:32N 37°56' W 008°51'0 0.2
2014-Nov-12 19:33N 37°56' W 008°51'0 0.5
2014-Nov-12 18:33N 37°56' W 008°51'1 1.3
2014-Nov-12 17:33N 37°57' W 008°52'2 1.5
2014-Nov-12 16:33N 37°55' W 008°52'2 1.6
2014-Nov-12 15:33N 37°57' W 008°53'1 1.1
2014-Nov-12 14:32N 37°57' W 008°52'1 0.1
2014-Nov-12 08:18N 37°56' W 008°51'1 2.0
2014-Nov-12 07:32N 37°55' W 008°52'1 0.5
2014-Nov-12 04:33N 37°56' W 008°51'0 0.0
2014-Nov-12 02:25N 37°56' W 008°51'0 0.0
2014-Nov-11 22:05N 37°56' W 008°51'0 0.5
2014-Nov-11 21:32N 37°56' W 008°51'2 1.1
2014-Nov-11 19:33N 37°54' W 008°51'  

Dump ship's entire track history